Time;durP1;ratioP1;P1;durP2;ratioP2;P2;SDS_P1;SDS_P2;PMS_P1;PMS_P2;Temp;Humidity;BMP_temperature;BMP_pressure;BME280_temperature;BME280_humidity;BME280_pressure;Samples;Min_cycle;Max_cycle;Signal;HPM_P1;HPM_P2
2023/03/18 00:01:55;;;;;;;86.80;49.35;;;8.50;87.10;;;;;;5031744;28;20052;-71
2023/03/18 00:04:59;;;;;;;81.10;45.17;;;9.30;86.40;;;;;;5031689;28;20049;-71
2023/03/18 00:08:04;;;;;;;82.88;48.28;;;9.70;86.10;;;;;;5032071;28;20037;-71
2023/03/18 00:11:11;;;;;;;87.80;48.47;;;9.90;86.10;;;;;;5031893;28;20048;-71
2023/03/18 00:14:15;;;;;;;84.65;50.25;;;9.80;86.30;;;;;;5031619;28;20063;-71
2023/03/18 00:17:19;;;;;;;86.53;52.28;;;9.60;87.70;;;;;;5031768;28;20061;-71
2023/03/18 00:20:37;;;;;;;88.18;53.72;;;10.00;88.10;;;;;;5030755;28;20044;-71
2023/03/18 00:23:41;;;;;;;94.68;50.50;;;10.00;88.40;;;;;;5031523;28;20040;-71
2023/03/18 00:26:45;;;;;;;83.68;49.22;;;9.90;87.60;;;;;;5031309;28;20048;-71
2023/03/18 00:29:50;;;;;;;91.35;50.58;;;10.20;87.80;;;;;;5031498;28;20060;-71
2023/03/18 00:32:55;;;;;;;74.78;45.97;;;9.40;87.10;;;;;;5042110;28;20508;-71
2023/03/18 00:35:59;;;;;;;66.43;41.15;;;9.90;87.00;;;;;;5031570;28;20040;-72
2023/03/18 00:39:03;;;;;;;69.78;41.13;;;10.20;86.60;;;;;;5053827;28;20040;-72
2023/03/18 00:42:09;;;;;;;73.00;44.03;;;9.40;86.80;;;;;;5041902;28;20045;-72
2023/03/18 00:45:15;;;;;;;69.72;40.10;;;9.40;87.00;;;;;;5031019;28;20065;-72
2023/03/18 00:48:19;;;;;;;80.07;41.45;;;9.20;87.10;;;;;;5031220;28;20056;-72
2023/03/18 00:51:26;;;;;;;67.75;38.47;;;8.40;87.00;;;;;;5031363;28;20056;-72
2023/03/18 00:54:30;;;;;;;71.70;40.95;;;8.00;87.20;;;;;;5031114;28;20124;-72
2023/03/18 00:57:34;;;;;;;74.57;42.63;;;9.10;88.40;;;;;;5031162;28;20056;-72
2023/03/18 01:00:40;;;;;;;73.38;42.78;;;8.60;88.60;;;;;;5041114;28;20045;-72
2023/03/18 01:03:44;;;;;;;76.22;45.67;;;;;;;;;;5029802;28;20044;-72
2023/03/18 01:06:48;;;;;;;71.78;43.65;;;10.10;88.80;;;;;;5029819;28;20445;-72
2023/03/18 01:09:53;;;;;;;79.13;44.03;;;8.20;87.70;;;;;;5029708;28;20052;-72
2023/03/18 01:12:57;;;;;;;72.18;42.50;;;9.30;88.60;;;;;;5030880;28;20037;-72
2023/03/18 01:16:02;;;;;;;68.10;40.30;;;;;;;;;;5030758;28;20056;-72
2023/03/18 01:19:06;;;;;;;71.13;39.28;;;9.40;88.00;;;;;;5029646;28;20048;-72
2023/03/18 01:22:10;;;;;;;61.38;37.22;;;10.20;87.80;;;;;;5030918;28;20044;-72
2023/03/18 01:25:21;;;;;;;62.45;33.80;;;;;;;;;;5029962;28;20041;-72
2023/03/18 01:28:29;;;;;;;59.42;33.33;;;9.80;87.00;;;;;;5029820;28;20040;-72
2023/03/18 01:31:34;;;;;;;55.75;31.73;;;10.10;87.10;;;;;;5030904;28;20048;-72
2023/03/18 01:34:43;;;;;;;46.13;28.20;;;9.20;86.50;;;;;;5029739;28;20044;-72
2023/03/18 01:37:47;;;;;;;52.03;28.77;;;;;;;;;;5029709;28;20044;-72
2023/03/18 01:40:53;;;;;;;48.35;27.52;;;;;;;;;;5030983;28;20044;-72
2023/03/18 01:43:58;;;;;;;49.92;26.85;;;9.30;86.30;;;;;;5030228;28;20064;-72
2023/03/18 01:47:02;;;;;;;47.17;27.30;;;9.40;86.50;;;;;;5030128;28;20685;-72
2023/03/18 01:50:09;;;;;;;49.17;28.25;;;10.40;87.40;;;;;;5029819;28;20052;-72
2023/03/18 01:53:16;;;;;;;47.65;28.42;;;8.70;87.30;;;;;;5029741;28;20041;-72
2023/03/18 01:56:21;;;;;;;46.85;28.80;;;12.90;89.60;;;;;;5029402;28;20053;-72
2023/03/18 01:59:28;;;;;;;56.67;28.77;;;9.10;88.30;;;;;;5029555;28;20049;-72
2023/03/18 02:02:33;;;;;;;48.20;30.10;;;;;;;;;;5029270;28;20393;-72
2023/03/18 02:05:38;;;;;;;51.65;30.77;;;8.40;88.30;;;;;;5030149;28;20401;-72
2023/03/18 02:08:42;;;;;;;54.08;31.33;;;8.70;89.00;;;;;;5029176;28;20060;-73
2023/03/18 02:11:48;;;;;;;55.28;29.90;;;9.00;89.30;;;;;;5029284;28;20048;-72
2023/03/18 02:14:55;;;;;;;49.50;28.83;;;7.80;89.00;;;;;;5032918;28;20049;-72
2023/03/18 02:18:11;;;;;;;54.75;29.65;;;;;;;;;;5056318;28;20040;-72
2023/03/18 02:21:47;;;;;;;48.50;28.17;;;8.40;90.30;;;;;;5033265;28;20049;-72
2023/03/18 02:25:09;;;;;;;51.90;28.48;;;8.70;90.20;;;;;;5033203;28;20500;-72
2023/03/18 02:28:17;;;;;;;54.55;28.17;;;;;;;;;;5033826;28;20036;-72
2023/03/18 02:31:21;;;;;;;53.60;29.77;;;;;;;;;;5032748;28;20044;-72
2023/03/18 02:34:27;;;;;;;56.45;30.67;;;8.00;89.80;;;;;;5032928;28;20037;-72
2023/03/18 02:37:33;;;;;;;47.65;30.85;;;8.50;90.20;;;;;;5033079;28;20053;-72
2023/03/18 02:40:40;;;;;;;52.67;30.50;;;9.50;90.40;;;;;;5032738;28;20560;-72
2023/03/18 02:43:51;;;;;;;55.47;31.45;;;10.30;90.90;;;;;;5032510;28;20056;-72
2023/03/18 02:46:59;;;;;;;54.75;32.47;;;8.50;90.30;;;;;;5032200;28;20048;-72
2023/03/18 02:50:03;;;;;;;47.20;29.60;;;8.60;90.60;;;;;;5032335;28;20056;-71
2023/03/18 02:53:08;;;;;;;57.50;31.65;;;;;;;;;;5032638;28;20046;-71
2023/03/18 02:56:13;;;;;;;50.60;31.60;;;;;;;;;;5032445;28;20056;-72
2023/03/18 02:59:19;;;;;;;49.75;31.60;;;;;;;;;;5032240;28;20064;-72
2023/03/18 03:02:24;;;;;;;51.90;31.05;;;;;;;;;;5032248;28;20037;-72
2023/03/18 03:05:28;;;;;;;60.75;32.17;;;9.90;90.80;;;;;;5032114;28;20108;-72
2023/03/18 03:08:35;;;;;;;57.78;32.42;;;;;;;;;;5031924;28;20045;-72
2023/03/18 03:11:43;;;;;;;53.45;33.30;;;8.30;90.50;;;;;;5033129;28;20056;-72
2023/03/18 03:14:51;;;;;;;61.67;35.65;;;;;;;;;;5031999;28;20052;-72
2023/03/18 03:17:57;;;;;;;53.65;33.10;;;;;;;;;;5031886;28;20040;-72
2023/03/18 03:21:01;;;;;;;62.70;33.72;;;;;;;;;;5031871;28;20037;-72
2023/03/18 03:24:06;;;;;;;58.88;33.85;;;7.80;91.50;;;;;;5032731;28;20520;-72
2023/03/18 03:27:11;;;;;;;52.97;32.50;;;;;;;;;;5032781;28;20048;-72
2023/03/18 03:30:15;;;;;;;55.30;32.00;;;;;;;;;;5031604;28;20060;-72
2023/03/18 03:33:19;;;;;;;54.53;31.08;;;;;;;;;;5032408;28;20044;-72
2023/03/18 03:36:24;;;;;;;53.35;30.55;;;;;;;;;;5032459;28;20504;-72
2023/03/18 03:39:28;;;;;;;57.65;28.98;;;;;;;;;;5031505;28;20417;-71
2023/03/18 03:42:32;;;;;;;49.10;27.23;;;;;;;;;;5032330;28;20064;-71
2023/03/18 03:45:37;;;;;;;40.75;25.88;;;;;;;;;;5031328;28;20056;-71
2023/03/18 03:48:41;;;;;;;43.85;27.13;;;;;;;;;;5032315;28;20080;-71
2023/03/18 03:51:49;;;;;;;47.25;26.95;;;;;;;;;;5031634;28;20409;-71
2023/03/18 03:54:55;;;;;;;51.22;26.75;;;;;;;;;;5031319;28;20048;-71
2023/03/18 03:57:59;;;;;;;49.13;25.85;;;;;;;;;;5031074;28;20044;-71
2023/03/18 04:01:05;;;;;;;45.30;25.55;;;;;;;;;;5031173;28;20044;-71
2023/03/18 04:04:10;;;;;;;47.55;25.10;;;;;;;;;;5031952;28;20048;-72
2023/03/18 04:07:14;;;;;;;45.10;26.23;;;;;;;;;;5031539;28;20041;-72
2023/03/18 04:10:20;;;;;;;39.08;24.17;;;7.80;91.00;;;;;;5019294;28;20060;-71
2023/03/18 04:13:23;;;;;;;43.28;26.15;;;6.70;90.50;;;;;;5030860;28;20040;-72
2023/03/18 04:16:30;;;;;;;37.38;22.17;;;;;;;;;;5030819;28;20049;-71
2023/03/18 04:19:36;;;;;;;36.47;22.13;;;;;;;;;;5030877;28;20044;-71
2023/03/18 04:22:41;;;;;;;38.88;21.13;;;;;;;;;;5030716;28;20041;-71
2023/03/18 04:25:47;;;;;;;38.00;21.35;;;;;;;;;;5019084;28;20036;-72
2023/03/18 04:28:53;;;;;;;32.97;19.17;;;8.90;91.40;;;;;;5030421;28;20044;-72
2023/03/18 04:31:58;;;;;;;32.33;18.08;;;7.30;90.70;;;;;;5030379;28;20401;-72
2023/03/18 04:35:02;;;;;;;31.48;18.73;;;8.50;90.70;;;;;;5030550;28;20052;-72
2023/03/18 04:38:07;;;;;;;29.75;18.55;;;8.00;90.60;;;;;;5030365;28;20036;-72
2023/03/18 04:41:12;;;;;;;36.05;19.27;;;;;;;;;;5030207;28;20542;-72
2023/03/18 04:44:18;;;;;;;31.60;17.23;;;;;;;;;;5018825;28;20052;-72
2023/03/18 04:47:27;;;;;;;26.83;16.63;;;8.40;90.00;;;;;;5030246;28;20044;-72
2023/03/18 04:50:32;;;;;;;32.53;17.92;;;;;;;;;;5053163;28;20367;-71
2023/03/18 04:53:37;;;;;;;28.83;17.48;;;;;;;;;;5030081;28;20044;-72
2023/03/18 04:56:42;;;;;;;30.73;19.02;;;;;;;;;;5029812;28;20048;-71
2023/03/18 04:59:47;;;;;;;31.85;19.65;;;;;;;;;;5030139;28;20040;-72
2023/03/18 05:02:51;;;;;;;36.95;19.27;;;7.30;90.70;;;;;;5029906;28;20049;-72
2023/03/18 05:05:59;;;;;;;41.65;20.10;;;;;;;;;;5030147;28;20048;-71
2023/03/18 05:09:12;;;;;;;34.20;19.55;;;;;;;;;;5030000;28;20417;-72
2023/03/18 05:12:18;;;;;;;37.03;22.10;;;;;;;;;;5029908;28;20413;-71
2023/03/18 05:15:23;;;;;;;39.15;21.00;;;;;;;;;;5030049;28;20212;-72
2023/03/18 05:18:32;;;;;;;41.40;22.23;;;;;;;;;;5029635;28;20044;-72
2023/03/18 05:21:40;;;;;;;36.15;20.38;;;;;;;;;;5030065;28;20049;-72
2023/03/18 05:24:45;;;;;;;30.58;19.58;;;;;;;;;;5030543;28;20044;-71
2023/03/18 05:27:49;;;;;;;32.35;18.35;;;;;;;;;;5029990;28;20063;-71
2023/03/18 05:31:04;;;;;;;32.65;18.13;;;;;;;;;;5029785;28;20048;-72
2023/03/18 05:34:12;;;;;;;29.45;18.35;;;;;;;;;;5029774;28;20041;-72
2023/03/18 05:37:16;;;;;;;40.00;18.65;;;;;;;;;;5029653;28;20048;-72
2023/03/18 05:40:28;;;;;;;27.67;16.83;;;;;;;;;;5029973;28;20064;-72
2023/03/18 05:43:53;;;;;;;32.72;17.63;;;;;;;;;;5030630;28;20052;-71
2023/03/18 05:46:57;;;;;;;27.05;16.08;;;9.40;88.50;;;;;;5029595;28;20040;-72
2023/03/18 05:50:41;;;;;;;29.65;16.17;;;11.10;83.20;;;;;;5034411;28;20052;-73
2023/03/18 05:53:49;;;;;;;26.45;16.15;;;12.50;80.10;;;;;;5033759;28;20045;-72
2023/03/18 05:57:01;;;;;;;;;;;14.50;76.80;;;;;;5034856;28;20516;-72
2023/03/18 06:00:07;;;;;;;26.55;17.30;;;13.20;74.10;;;;;;5033311;28;19909;-72
2023/03/18 06:03:20;;;;;;;33.42;17.85;;;15.70;73.90;;;;;;5033429;28;20057;-72
2023/03/18 06:06:24;;;;;;;26.58;19.67;;;14.90;71.70;;;;;;5033975;28;20044;-72
2023/03/18 06:09:29;;;;;;;31.08;19.25;;;15.50;70.20;;;;;;5034044;28;20076;-71
2023/03/18 06:12:34;;;;;;;35.42;20.15;;;15.70;69.90;;;;;;5033162;28;20519;-71
2023/03/18 06:15:39;;;;;;;39.88;21.63;;;16.10;69.60;;;;;;5033413;28;20413;-72
2023/03/18 06:18:43;;;;;;;38.88;22.60;;;16.40;68.60;;;;;;5056367;28;20220;-72
2023/03/18 06:21:51;;;;;;;44.60;23.33;;;16.70;68.40;;;;;;5044543;28;20061;-72
2023/03/18 06:24:56;;;;;;;39.67;27.48;;;;;;;;;;5034113;28;20052;-71
2023/03/18 06:28:00;;;;;;;43.97;29.40;;;17.00;67.90;;;;;;5033762;28;20040;-71
2023/03/18 06:31:07;;;;;;;42.58;30.45;;;16.90;68.50;;;;;;5032837;28;20052;-72
2023/03/18 06:34:12;;;;;;;46.45;30.10;;;17.10;68.30;;;;;;5033615;28;20105;-72
2023/03/18 06:37:16;;;;;;;40.30;29.55;;;17.00;68.40;;;;;;5032725;28;20052;-72
2023/03/18 06:40:23;;;;;;;48.08;29.58;;;17.00;69.20;;;;;;5044348;28;20068;-72
2023/03/18 06:43:27;;;;;;;57.47;31.33;;;17.20;69.10;;;;;;5032371;28;20143;-70
2023/03/18 06:46:31;;;;;;;43.28;28.65;;;17.00;69.80;;;;;;5032534;28;20150;-68
2023/03/18 06:49:37;;;;;;;51.17;30.50;;;16.50;70.50;;;;;;5032739;28;20405;-68
2023/03/18 06:52:49;;;;;;;52.42;30.48;;;16.10;72.30;;;;;;5032513;28;20049;-68
2023/03/18 06:55:55;;;;;;;51.45;32.00;;;16.00;72.80;;;;;;5020932;28;20511;-68
2023/03/18 06:59:06;;;;;;;45.22;30.27;;;15.70;73.30;;;;;;5031823;28;20052;-68
2023/03/18 07:02:11;;;;;;;50.00;30.63;;;15.50;73.30;;;;;;5044564;28;20401;-68
2023/03/18 07:05:17;;;;;;;45.75;29.98;;;15.40;74.00;;;;;;5032530;28;20064;-68
2023/03/18 07:08:21;;;;;;;40.47;29.30;;;15.40;74.80;;;;;;5032288;28;20401;-68
2023/03/18 07:11:26;;;;;;;47.08;29.70;;;15.30;75.00;;;;;;5032270;28;20158;-66
2023/03/18 07:14:31;;;;;;;44.20;29.42;;;15.30;74.70;;;;;;5043847;28;20040;-68
2023/03/18 07:17:37;;;;;;;39.55;26.67;;;15.40;75.90;;;;;;5032611;28;20109;-67
2023/03/18 07:20:41;;;;;;;52.88;29.88;;;15.50;74.20;;;;;;5033372;28;20052;-67
2023/03/18 07:23:46;;;;;;;38.92;24.90;;;15.30;75.30;;;;;;5032265;28;20044;-67
2023/03/18 07:26:50;;;;;;;39.55;28.25;;;15.40;75.70;;;;;;5032192;28;20045;-66
2023/03/18 07:29:55;;;;;;;42.75;28.13;;;15.40;75.70;;;;;;5031503;28;20057;-66
2023/03/18 07:32:59;;;;;;;37.58;23.27;;;15.50;76.50;;;;;;5032553;28;20044;-66
2023/03/18 07:36:04;;;;;;;44.00;24.63;;;15.80;75.60;;;;;;5031208;28;20044;-66
2023/03/18 07:39:11;;;;;;;36.13;23.52;;;15.80;76.30;;;;;;5032499;28;20044;-67
2023/03/18 07:42:15;;;;;;;33.83;20.52;;;15.70;76.10;;;;;;5032576;28;20048;-66
2023/03/18 07:45:23;;;;;;;48.40;20.80;;;16.00;76.70;;;;;;5031381;28;20057;-66
2023/03/18 07:48:27;;;;;;;32.92;20.40;;;16.40;76.00;;;;;;5031696;28;20067;-69
2023/03/18 07:51:31;;;;;;;28.63;20.15;;;16.70;74.70;;;;;;5032266;28;20072;-67
2023/03/18 07:54:35;;;;;;;33.47;19.90;;;16.70;74.50;;;;;;5031870;28;20666;-66
2023/03/18 07:57:39;;;;;;;34.40;20.67;;;16.70;74.70;;;;;;5032321;28;20056;-67
2023/03/18 08:00:43;;;;;;;27.88;19.92;;;16.70;74.70;;;;;;5031832;28;20052;-67
2023/03/18 08:03:48;;;;;;;29.45;19.40;;;16.70;75.90;;;;;;5032364;28;20048;-66
2023/03/18 08:06:52;;;;;;;29.65;17.73;;;17.10;75.00;;;;;;5031584;28;20040;-66
2023/03/18 08:09:56;;;;;;;21.77;13.80;;;17.20;72.70;;;;;;5031692;28;20116;-65
2023/03/18 08:13:00;;;;;;;25.10;11.63;;;17.30;72.90;;;;;;5031519;28;20504;-66
2023/03/18 08:16:04;;;;;;;20.92;11.95;;;17.40;71.90;;;;;;5031701;28;20036;-67
2023/03/18 08:19:08;;;;;;;18.58;9.98;;;17.60;71.30;;;;;;5031636;28;20041;-67
2023/03/18 08:22:13;;;;;;;13.18;7.47;;;17.50;71.10;;;;;;5031751;28;20045;-66
2023/03/18 08:25:17;;;;;;;9.25;7.00;;;17.60;69.60;;;;;;5031735;28;20060;-65
2023/03/18 08:28:21;;;;;;;14.55;8.60;;;17.90;70.50;;;;;;5031633;28;20061;-64
2023/03/18 08:31:24;;;;;;;21.02;9.30;;;18.00;70.00;;;;;;5031215;28;20151;-64
2023/03/18 08:34:28;;;;;;;19.33;8.73;;;18.20;70.30;;;;;;5031503;28;20036;-65
2023/03/18 08:37:32;;;;;;;16.00;8.70;;;18.40;70.20;;;;;;5031207;28;20397;-65
2023/03/18 08:40:38;;;;;;;16.48;9.60;;;18.50;69.60;;;;;;5031323;28;20048;-66
2023/03/18 08:43:43;;;;;;;16.85;9.50;;;18.60;70.00;;;;;;5031151;28;20072;-67
2023/03/18 08:46:47;;;;;;;16.65;9.80;;;18.70;70.10;;;;;;5031644;28;20123;-67
2023/03/18 08:49:51;;;;;;;16.38;10.02;;;18.80;70.50;;;;;;5030986;28;20056;-68
2023/03/18 08:52:57;;;;;;;33.53;11.45;;;18.90;70.50;;;;;;5031111;28;20060;-68
2023/03/18 08:56:04;;;;;;;18.40;11.00;;;18.90;70.20;;;;;;5031221;28;20052;-68
2023/03/18 08:59:09;;;;;;;22.05;10.75;;;18.90;68.80;;;;;;5030877;28;20424;-67
2023/03/18 09:02:15;;;;;;;23.52;11.07;;;18.70;68.80;;;;;;5030701;28;20045;-68
2023/03/18 09:05:20;;;;;;;21.02;11.40;;;18.50;69.90;;;;;;5030915;28;20057;-68
2023/03/18 09:08:24;;;;;;;24.52;11.30;;;18.40;69.70;;;;;;5030512;28;20040;-68
2023/03/18 09:11:28;;;;;;;21.60;12.38;;;18.40;71.00;;;;;;5030577;28;20060;-67
2023/03/18 09:14:32;;;;;;;18.00;12.63;;;18.40;72.00;;;;;;5030915;28;20037;-67
2023/03/18 09:17:39;;;;;;;22.13;12.90;;;18.60;72.50;;;;;;5030654;28;20064;-68
2023/03/18 09:20:44;;;;;;;22.00;13.20;;;18.70;71.60;;;;;;5030141;28;20056;-68
2023/03/18 09:23:49;;;;;;;18.08;10.43;;;18.80;71.30;;;;;;5030201;28;20040;-69
2023/03/18 09:26:53;;;;;;;18.77;9.55;;;18.90;71.80;;;;;;5029362;28;20045;-72
2023/03/18 09:29:58;;;;;;;14.02;7.10;;;19.00;72.10;;;;;;5029873;28;20052;-70
2023/03/18 09:33:04;;;;;;;9.75;6.10;;;19.10;72.30;;;;;;5029857;28;20504;-68
2023/03/18 09:36:09;;;;;;;10.02;5.32;;;19.00;71.30;;;;;;5029965;28;20049;-67
2023/03/18 09:39:13;;;;;;;10.35;5.85;;;18.70;72.00;;;;;;5030150;28;20040;-68
2023/03/18 09:42:38;;;;;;;11.63;5.03;;;18.80;71.50;;;;;;5030478;28;20390;-68
2023/03/18 09:45:54;;;;;;;8.73;4.80;;;18.90;72.20;;;;;;5030235;28;20096;-66
2023/03/18 09:49:15;;;;;;;16.60;7.07;;;19.10;72.40;;;;;;5030350;28;20049;-67
2023/03/18 09:52:19;;;;;;;;;;;19.30;71.00;;;;;;5030764;28;20068;-66
2023/03/18 09:55:35;;;;;;;16.65;5.78;;;19.40;71.90;;;;;;5030614;28;19913;-66
2023/03/18 09:58:46;;;;;;;11.55;8.02;;;19.40;71.40;;;;;;5030239;28;20044;-68
2023/03/18 10:01:54;;;;;;;8.25;4.97;;;19.50;72.30;;;;;;5030281;28;20044;-68
2023/03/18 10:05:04;;;;;;;16.25;6.82;;;19.70;71.60;;;;;;5030467;28;20045;-68
2023/03/18 10:08:23;;;;;;;12.73;5.70;;;19.80;71.30;;;;;;5029965;28;20056;-66
2023/03/18 10:11:36;;;;;;;7.43;4.07;;;19.70;70.10;;;;;;5030099;28;20405;-67
2023/03/18 10:14:57;;;;;;;8.23;4.10;;;19.70;71.00;;;;;;5029986;28;20041;-68
2023/03/18 10:18:30;;;;;;;10.15;5.07;;;19.90;71.00;;;;;;5030133;28;20049;-67
2023/03/18 10:22:11;;;;;;;10.05;6.10;;;20.10;69.80;;;;;;5030407;28;20390;-67
2023/03/18 10:25:27;;;;;;;11.82;5.55;;;20.10;69.50;;;;;;5029999;28;20052;-67
2023/03/18 10:29:12;;;;;;;8.73;5.47;;;20.20;69.30;;;;;;5030160;28;20117;-67
2023/03/18 10:32:19;;;;;;;8.43;5.18;;;20.20;69.60;;;;;;5031778;28;20056;-68
2023/03/18 10:35:32;;;;;;;7.90;4.85;;;20.10;69.00;;;;;;5032664;28;20052;-68
2023/03/18 10:38:43;;;;;;;22.98;7.03;;;20.10;69.50;;;;;;5033788;28;20040;-67
2023/03/18 10:41:50;;;;;;;13.55;6.15;;;20.20;69.40;;;;;;5033559;28;20139;-67
2023/03/18 10:45:07;;;;;;;10.85;5.43;;;20.20;68.90;;;;;;5033423;28;20057;-67
2023/03/18 10:48:26;;;;;;;8.00;4.30;;;20.30;68.80;;;;;;5033325;28;20057;-68
2023/03/18 10:51:38;;;;;;;11.98;4.90;;;20.30;68.60;;;;;;5033205;28;20120;-67
2023/03/18 10:54:49;;;;;;;11.52;5.10;;;20.30;67.60;;;;;;5032801;28;20056;-68
2023/03/18 10:57:53;;;;;;;7.65;4.70;;;20.30;67.70;;;;;;5033001;28;20041;-68
2023/03/18 11:00:58;;;;;;;11.98;5.05;;;20.30;68.00;;;;;;5033306;28;20048;-68
2023/03/18 11:04:10;;;;;;;16.85;5.95;;;20.30;68.20;;;;;;5032252;28;20050;-68
2023/03/18 11:07:20;;;;;;;10.82;5.50;;;20.30;69.70;;;;;;5032976;28;20048;-69
2023/03/18 11:10:29;;;;;;;11.43;6.57;;;20.30;69.30;;;;;;5032840;28;20052;-68
2023/03/18 11:13:34;;;;;;;13.35;6.68;;;20.20;68.70;;;;;;5033051;28;20496;-68
2023/03/18 11:16:41;;;;;;;11.25;5.63;;;20.10;67.60;;;;;;5033037;28;20390;-68
2023/03/18 11:19:59;;;;;;;11.52;6.03;;;20.10;68.70;;;;;;5032989;28;20052;-68
2023/03/18 11:23:19;;;;;;;21.67;7.03;;;20.10;69.70;;;;;;5032581;28;20520;-69
2023/03/18 11:26:26;;;;;;;11.18;6.43;;;20.10;70.40;;;;;;5032728;28;20064;-68
2023/03/18 11:29:33;;;;;;;20.02;6.07;;;20.10;70.70;;;;;;5032971;28;20045;-69
2023/03/18 11:32:48;;;;;;;10.13;4.97;;;20.10;71.20;;;;;;5032343;28;20056;-68
2023/03/18 11:35:56;;;;;;;20.55;7.00;;;20.10;71.50;;;;;;5032582;28;20044;-68
2023/03/18 11:39:05;;;;;;;12.70;6.20;;;20.00;70.60;;;;;;5032549;28;20101;-68
2023/03/18 11:42:20;;;;;;;12.57;5.70;;;19.90;70.90;;;;;;5039321;28;20045;-68
2023/03/18 11:45:42;;;;;;;17.20;7.88;;;19.90;71.50;;;;;;5032251;28;20048;-68
2023/03/18 11:48:47;;;;;;;9.88;6.03;;;19.90;71.50;;;;;;5032366;28;20032;-68
2023/03/18 11:52:28;;;;;;;15.10;5.60;;;19.80;71.10;;;;;;5032365;28;20057;-68
2023/03/18 11:55:49;;;;;;;10.98;5.85;;;19.60;70.90;;;;;;5032228;28;20052;-68
2023/03/18 11:59:00;;;;;;;11.73;5.45;;;19.50;72.60;;;;;;5031964;28;20060;-68
2023/03/18 12:02:18;;;;;;;13.73;5.05;;;19.50;72.30;;;;;;5031773;28;20429;-68
2023/03/18 12:05:29;;;;;;;19.70;5.05;;;19.60;72.50;;;;;;5031938;28;20052;-68
2023/03/18 12:08:46;;;;;;;14.98;4.60;;;19.50;72.40;;;;;;5031608;28;20044;-68
2023/03/18 12:12:12;;;;;;;8.73;4.10;;;19.40;71.50;;;;;;5031636;28;20477;-69
2023/03/18 12:15:54;;;;;;;9.85;4.22;;;19.40;72.70;;;;;;5031574;28;20036;-69
2023/03/18 12:19:23;;;;;;;11.15;3.78;;;19.30;73.00;;;;;;5031932;28;20037;-69
2023/03/18 12:22:34;;;;;;;11.90;3.80;;;19.40;73.20;;;;;;5032156;28;20393;-68
2023/03/18 12:25:49;;;;;;;8.33;3.70;;;19.40;72.80;;;;;;5031405;28;20044;-69
2023/03/18 12:29:50;;;;;;;9.55;2.85;;;19.50;72.90;;;;;;5031793;28;20381;-69
2023/03/18 12:33:17;;;;;;;6.10;2.80;;;19.50;72.80;;;;;;5029518;28;20057;-68
2023/03/18 12:36:22;;;;;;;6.75;2.97;;;19.50;72.40;;;;;;5029607;28;20052;-68
2023/03/18 12:40:05;;;;;;;7.97;2.70;;;19.40;72.40;;;;;;5031939;28;20056;-67
2023/03/18 12:43:38;;;;;;;6.05;2.92;;;19.30;72.40;;;;;;5043460;28;20057;-68
2023/03/18 12:47:05;;;;;;;11.40;3.75;;;19.30;73.10;;;;;;5047453;28;20056;-68
2023/03/18 12:50:43;;;;;;;18.85;6.25;;;19.30;72.90;;;;;;5040709;28;20049;-68
2023/03/18 12:53:57;;;;;;;9.48;3.33;;;19.20;71.80;;;;;;5038267;28;20051;-68
2023/03/18 12:57:22;;;;;;;7.40;2.65;;;19.20;72.40;;;;;;5037343;28;20048;-68
2023/03/18 13:00:46;;;;;;;15.10;3.15;;;19.10;72.70;;;;;;5037227;28;20047;-68
2023/03/18 13:04:04;;;;;;;7.13;3.42;;;19.10;72.30;;;;;;5033693;28;20523;-68
2023/03/18 13:07:17;;;;;;;9.02;2.92;;;19.00;71.90;;;;;;5030807;28;20541;-68
2023/03/18 13:10:23;;;;;;;11.95;4.28;;;19.00;72.30;;;;;;5032858;28;20044;-68
2023/03/18 13:13:29;;;;;;;4.65;2.85;;;19.00;72.50;;;;;;5033665;28;20060;-68
2023/03/18 13:16:36;;;;;;;7.68;2.70;;;19.00;72.20;;;;;;5032858;28;20049;-68
2023/03/18 13:19:41;;;;;;;9.82;2.80;;;18.90;71.60;;;;;;5032191;28;20389;-68
2023/03/18 13:22:54;;;;;;;3.63;2.10;;;18.90;71.60;;;;;;5030768;28;20044;-67
2023/03/18 13:26:02;;;;;;;7.57;2.50;;;18.90;71.30;;;;;;5030994;28;20041;-67
2023/03/18 13:29:32;;;;;;;6.40;2.40;;;18.90;71.10;;;;;;5032015;28;20053;-67
2023/03/18 13:32:49;;;;;;;7.60;2.50;;;18.90;69.40;;;;;;5030954;28;20064;-67
2023/03/18 13:36:21;;;;;;;9.30;2.28;;;18.90;68.10;;;;;;5030983;28;20045;-67
2023/03/18 13:39:45;;;;;;;6.65;2.40;;;18.80;66.30;;;;;;5030734;28;20539;-67
2023/03/18 13:42:54;;;;;;;6.22;2.60;;;18.70;66.50;;;;;;5030987;28;20060;-67
2023/03/18 13:45:59;;;;;;;7.43;2.55;;;18.70;65.40;;;;;;5030497;28;20076;-67
2023/03/18 13:49:04;;;;;;;6.40;2.03;;;18.70;65.30;;;;;;5031022;28;20052;-67
2023/03/18 13:52:32;;;;;;;6.20;1.92;;;18.70;63.90;;;;;;5030402;28;20049;-66
2023/03/18 13:55:46;;;;;;;6.60;2.30;;;18.60;64.70;;;;;;5029805;28;20058;-68
2023/03/18 13:58:52;;;;;;;6.05;2.53;;;18.60;64.50;;;;;;5029627;28;20044;-68
2023/03/18 14:02:16;;;;;;;4.00;2.00;;;18.50;64.70;;;;;;5030595;28;20060;-67
2023/03/18 14:05:38;;;;;;;12.45;3.42;;;18.50;65.00;;;;;;5030141;28;20045;-66
2023/03/18 14:08:47;;;;;;;6.15;2.40;;;18.40;66.30;;;;;;5030377;28;20049;-67
2023/03/18 14:11:52;;;;;;;8.43;2.78;;;18.40;67.10;;;;;;5033828;28;20056;-67
2023/03/18 14:15:08;;;;;;;5.20;2.83;;;18.40;68.80;;;;;;5034047;28;20052;-67
2023/03/18 14:18:24;;;;;;;7.95;2.50;;;18.30;69.40;;;;;;5033970;28;20044;-68
2023/03/18 14:21:30;;;;;;;5.93;2.25;;;18.30;69.30;;;;;;5033814;28;20509;-67
2023/03/18 14:24:35;;;;;;;3.97;2.10;;;18.30;70.00;;;;;;5033522;28;20164;-67
2023/03/18 14:28:13;;;;;;;5.43;2.22;;;18.30;70.40;;;;;;5033890;28;20041;-67
2023/03/18 14:31:31;;;;;;;14.13;3.75;;;18.30;70.80;;;;;;5033642;28;20076;-70
2023/03/18 14:34:55;;;;;;;16.40;3.28;;;18.20;72.10;;;;;;5033500;28;20483;-67
2023/03/18 14:38:08;;;;;;;7.07;2.40;;;18.20;72.80;;;;;;5033620;28;20045;-67
2023/03/18 14:41:21;;;;;;;10.27;2.88;;;18.20;73.30;;;;;;5033465;28;20053;-67
2023/03/18 14:44:43;;;;;;;7.88;2.53;;;18.10;73.40;;;;;;5032353;28;20536;-69
2023/03/18 14:47:50;;;;;;;7.68;2.63;;;18.10;74.10;;;;;;5033618;28;20238;-69
2023/03/18 14:51:03;;;;;;;5.65;2.30;;;18.10;74.70;;;;;;5033438;28;20053;-68
2023/03/18 14:54:19;;;;;;;13.23;3.08;;;18.00;74.90;;;;;;5031754;28;20615;-68
2023/03/18 14:57:24;;;;;;;6.38;2.70;;;18.00;75.00;;;;;;5033460;28;20044;-68
2023/03/18 15:00:35;;;;;;;8.13;2.78;;;17.90;75.10;;;;;;5033015;28;20516;-67
2023/03/18 15:03:43;;;;;;;8.85;2.50;;;17.90;76.10;;;;;;5032988;28;20400;-68
2023/03/18 15:06:48;;;;;;;7.40;2.60;;;17.80;75.50;;;;;;5033124;28;20052;-68
2023/03/18 15:09:53;;;;;;;11.05;2.60;;;17.80;75.60;;;;;;5032818;28;20402;-67
2023/03/18 15:13:08;;;;;;;6.15;2.70;;;17.80;76.90;;;;;;5032783;28;20457;-67
2023/03/18 15:16:18;;;;;;;12.55;2.95;;;17.80;78.00;;;;;;5032624;28;20040;-67
2023/03/18 15:19:22;;;;;;;10.70;2.83;;;17.70;77.90;;;;;;5032378;28;20120;-68
2023/03/18 15:22:31;;;;;;;7.30;2.90;;;17.70;77.90;;;;;;5032475;28;20048;-67
2023/03/18 15:25:37;;;;;;;19.70;10.15;;;17.60;78.60;;;;;;5032328;28;20511;-66
2023/03/18 15:28:46;;;;;;;9.55;2.70;;;17.60;79.00;;;;;;5032762;28;20041;-69
2023/03/18 15:31:51;;;;;;;11.70;2.65;;;17.70;79.10;;;;;;5032292;28;20060;-67
2023/03/18 15:35:21;;;;;;;8.73;3.30;;;17.60;79.30;;;;;;5032518;28;20049;-68
2023/03/18 15:38:30;;;;;;;6.95;2.47;;;17.60;79.30;;;;;;5032151;28;20057;-68
2023/03/18 15:41:35;;;;;;;7.57;2.53;;;17.50;79.50;;;;;;5031772;28;20064;-68
2023/03/18 15:44:41;;;;;;;10.15;3.55;;;17.50;79.30;;;;;;5032105;28;20056;-68
2023/03/18 15:47:46;;;;;;;8.00;2.28;;;17.50;79.50;;;;;;5031998;28;20054;-68
2023/03/18 15:50:55;;;;;;;9.02;2.85;;;17.50;80.00;;;;;;5032069;28;20049;-68
2023/03/18 15:54:13;;;;;;;16.17;4.35;;;17.40;80.00;;;;;;5032052;28;20135;-68
2023/03/18 15:57:28;;;;;;;16.48;2.95;;;17.40;80.20;;;;;;5031716;28;20053;-68
2023/03/18 16:00:33;;;;;;;13.90;3.20;;;17.40;80.50;;;;;;5031636;28;20492;-68
2023/03/18 16:03:42;;;;;;;16.75;3.10;;;17.40;81.30;;;;;;5031787;28;20040;-68
2023/03/18 16:06:46;;;;;;;8.95;2.65;;;17.40;81.70;;;;;;5031585;28;20048;-68
2023/03/18 16:09:50;;;;;;;14.15;3.22;;;17.30;81.90;;;;;;5031901;28;20049;-68
2023/03/18 16:13:00;;;;;;;9.07;2.17;;;17.20;82.10;;;;;;5032546;28;20164;-68
2023/03/18 16:16:05;;;;;;;9.85;2.63;;;17.20;82.50;;;;;;5031353;28;20044;-68
2023/03/18 16:19:23;;;;;;;12.55;2.92;;;17.20;83.10;;;;;;5031577;28;20499;-68
2023/03/18 16:22:27;;;;;;;9.88;2.90;;;17.10;83.70;;;;;;5031717;28;20579;-68
2023/03/18 16:25:32;;;;;;;8.70;2.72;;;17.10;83.70;;;;;;5031491;28;20044;-68
2023/03/18 16:28:36;;;;;;;11.48;2.90;;;17.00;83.70;;;;;;5031311;28;20040;-69
2023/03/18 16:31:40;;;;;;;19.85;3.33;;;16.90;84.20;;;;;;5030328;28;20052;-68
2023/03/18 16:34:44;;;;;;;11.02;2.72;;;16.90;84.60;;;;;;5031373;28;20064;-72